Time;durP1;ratioP1;P1;durP2;ratioP2;P2;SDS_P1;SDS_P2;PMS_P1;PMS_P2;Temp;Humidity;BMP_temperature;BMP_pressure;BME280_temperature;BME280_humidity;BME280_pressure;Samples;Min_cycle;Max_cycle;Signal;HPM_P1;HPM_P2
2022/07/19 04:29:13;;;;;;;;;2.40;2.00;31.40;99.90;;;;;;5096058;27;13520;-71
2022/07/19 04:31:44;;;;;;;;;2.20;2.20;31.20;99.90;;;;;;5075953;28;8856;-71
2022/07/19 04:34:20;;;;;;;;;2.60;2.00;31.20;99.90;;;;;;5076782;28;8816;-72
2022/07/19 04:36:50;;;;;;;;;2.60;1.00;31.20;99.90;;;;;;5079087;28;8846;-71
2022/07/19 04:39:20;;;;;;;;;1.60;1.60;31.10;99.90;;;;;;5082744;28;8848;-71
2022/07/19 04:41:53;;;;;;;;;3.00;2.00;31.10;99.90;;;;;;5103857;27;8877;-71
2022/07/19 04:44:29;;;;;;;;;2.00;2.00;31.10;99.90;;;;;;5080999;28;8836;-71
2022/07/19 04:47:02;;;;;;;;;2.00;1.00;31.00;99.90;;;;;;5082388;28;8886;-71
2022/07/19 04:49:32;;;;;;;;;2.00;1.00;30.90;99.90;;;;;;5081037;28;8869;-71
2022/07/19 04:52:01;;;;;;;;;2.00;1.00;30.80;99.90;;;;;;5076710;28;8874;-71
2022/07/19 04:54:32;;;;;;;;;1.00;1.00;30.70;99.90;;;;;;5073554;28;8865;-71
2022/07/19 04:57:02;;;;;;;;;6.00;2.40;30.60;99.90;;;;;;5073249;28;8852;-71
2022/07/19 04:59:34;;;;;;;;;1.80;1.80;30.50;99.90;;;;;;5080045;28;8901;-71
2022/07/19 05:02:04;;;;;;;;;1.00;1.00;30.40;99.90;;;;;;5076364;28;8829;-71
2022/07/19 05:04:42;;;;;;;;;0.80;0.80;30.50;99.90;;;;;;5075658;28;8827;-71
2022/07/19 05:07:15;;;;;;;;;1.60;1.60;30.40;99.90;;;;;;5078597;28;8868;-71
2022/07/19 05:09:46;;;;;;;;;0.60;0.60;30.40;99.90;;;;;;5064235;28;8983;-71
2022/07/19 05:12:18;;;;;;;;;1.00;1.00;30.30;99.90;;;;;;5087112;28;8819;-71
2022/07/19 05:14:49;;;;;;;;;1.00;1.00;30.30;99.90;;;;;;5093948;28;8831;-71
2022/07/19 05:17:21;;;;;;;;;3.20;1.00;30.30;99.90;;;;;;5073173;28;8856;-71
2022/07/19 05:19:51;;;;;;;;;1.20;1.20;30.30;99.90;;;;;;5060143;28;8832;-71
2022/07/19 05:22:24;;;;;;;;;1.00;1.00;30.30;99.90;;;;;;5109392;27;8835;-71
2022/07/19 05:24:58;;;;;;;;;3.00;3.00;30.10;99.90;;;;;;5076250;28;9620;-72
2022/07/19 05:27:29;;;;;;;;;1.00;1.00;30.00;99.90;;;;;;5076333;28;8816;-72
2022/07/19 05:30:02;;;;;;;;;1.20;1.20;29.90;99.90;;;;;;5072986;28;8844;-71
2022/07/19 05:32:35;;;;;;;;;1.00;1.00;29.80;99.90;;;;;;5077195;28;8832;-72
2022/07/19 05:35:06;;;;;;;;;3.00;1.60;29.70;99.90;;;;;;5087447;28;8818;-71
2022/07/19 05:37:38;;;;;;;;;1.80;1.00;29.70;99.90;;;;;;5089260;28;8821;-71
2022/07/19 05:40:12;;;;;;;;;2.00;2.00;29.70;99.90;;;;;;5081443;28;8827;-71
2022/07/19 05:42:48;;;;;;;;;1.00;1.00;29.60;99.90;;;;;;5062718;28;8832;-71
2022/07/19 05:45:20;;;;;;;;;1.60;1.60;29.70;99.90;;;;;;5089678;27;8831;-72
2022/07/19 05:47:53;;;;;;;;;1.00;1.00;29.70;99.90;;;;;;5064260;28;8887;-71
2022/07/19 05:50:22;;;;;;;;;0.00;0.00;29.60;99.90;;;;;;5060178;28;8847;-72
2022/07/19 05:52:51;;;;;;;;;1.00;0.00;29.60;99.90;;;;;;5063608;28;9583;-71
2022/07/19 05:55:25;;;;;;;;;1.60;1.00;29.50;99.90;;;;;;5061896;28;8808;-72
2022/07/19 05:57:55;;;;;;;;;2.00;0.20;29.70;99.90;;;;;;5062568;28;8836;-71
2022/07/19 06:00:30;;;;;;;;;1.00;1.00;29.60;99.90;;;;;;5066636;28;8815;-72
2022/07/19 06:03:01;;;;;;;;;2.00;1.00;29.50;99.90;;;;;;5056046;28;8840;-72
2022/07/19 06:05:31;;;;;;;;;1.20;1.20;29.40;99.90;;;;;;5059530;28;8835;-72
2022/07/19 06:08:01;;;;;;;;;1.00;1.00;29.20;99.90;;;;;;5084834;27;9567;-72
2022/07/19 06:10:32;;;;;;;;;2.40;1.00;29.20;99.90;;;;;;5062706;28;8827;-72
2022/07/19 06:13:04;;;;;;;;;2.00;1.00;29.10;99.90;;;;;;5062406;28;9589;-72
2022/07/19 06:15:33;;;;;;;;;2.60;1.00;29.20;99.90;;;;;;5058742;28;9612;-72
2022/07/19 06:18:08;;;;;;;;;1.40;1.40;29.10;99.90;;;;;;5041876;28;8848;-72
2022/07/19 06:20:39;;;;;;;;;2.60;0.80;29.10;99.90;;;;;;5055322;28;8831;-72
2022/07/19 06:23:09;;;;;;;;;1.20;1.20;29.10;99.90;;;;;;5075719;28;8816;-72
2022/07/19 06:25:47;;;;;;;;;1.00;1.00;29.10;99.90;;;;;;5071479;28;8855;-72
2022/07/19 06:28:18;;;;;;;;;2.60;1.00;29.00;99.90;;;;;;5061933;28;8847;-72
2022/07/19 06:30:58;;;;;;;;;1.00;1.00;28.80;99.90;;;;;;5062665;28;8806;-71
2022/07/19 06:33:28;;;;;;;;;3.40;2.00;28.80;99.90;;;;;;5073773;28;8942;-72
2022/07/19 06:35:59;;;;;;;;;0.60;0.60;28.70;99.90;;;;;;5058956;28;8842;-72
2022/07/19 06:38:31;;;;;;;;;2.00;2.00;28.80;99.90;;;;;;5072800;28;8858;-71
2022/07/19 06:41:00;;;;;;;;;2.60;1.00;28.70;99.90;;;;;;5092911;27;8840;-72
2022/07/19 06:43:31;;;;;;;;;1.80;1.80;28.70;99.90;;;;;;5056173;28;8848;-71
2022/07/19 06:46:04;;;;;;;;;1.00;1.00;28.70;99.90;;;;;;5064685;28;8828;-71
2022/07/19 06:48:37;;;;;;;;;1.40;1.40;28.70;99.90;;;;;;5059027;28;8870;-72
2022/07/19 06:51:09;;;;;;;;;1.40;1.00;28.60;99.90;;;;;;5057710;28;8873;-71
2022/07/19 06:53:39;;;;;;;;;1.00;1.00;28.50;99.90;;;;;;5056083;28;8860;-72
2022/07/19 06:56:12;;;;;;;;;1.80;1.80;28.60;99.90;;;;;;5060025;28;8839;-71
2022/07/19 06:58:42;;;;;;;;;1.00;1.00;28.40;99.90;;;;;;5061105;28;8812;-71
2022/07/19 07:01:17;;;;;;;;;1.60;1.60;28.50;99.90;;;;;;5052613;28;8844;-70
2022/07/19 07:03:48;;;;;;;;;3.00;1.00;28.50;99.90;;;;;;5056645;28;8820;-71
2022/07/19 07:06:17;;;;;;;;;1.00;1.00;28.30;99.90;;;;;;5058289;28;8844;-71
2022/07/19 07:08:47;;;;;;;;;1.00;1.00;28.30;99.90;;;;;;5057915;28;8872;-71
2022/07/19 07:11:18;;;;;;;;;2.00;2.00;28.30;99.90;;;;;;5055771;28;8828;-71
2022/07/19 07:13:50;;;;;;;;;1.80;1.80;28.10;99.90;;;;;;5059532;28;8854;-71
2022/07/19 07:16:22;;;;;;;;;0.40;0.40;28.20;99.90;;;;;;5041372;28;8828;-71
2022/07/19 07:18:54;;;;;;;;;0.00;0.00;28.20;99.90;;;;;;5072279;28;8832;-72
2022/07/19 07:21:30;;;;;;;;;2.00;2.00;28.10;99.90;;;;;;5066138;28;8836;-71
2022/07/19 07:24:03;;;;;;;;;1.40;1.00;28.00;99.90;;;;;;5057938;28;8852;-71
2022/07/19 07:26:33;;;;;;;;;3.00;1.20;28.00;99.90;;;;;;5057947;28;8824;-71
2022/07/19 07:29:04;;;;;;;;;3.00;3.00;28.00;99.90;;;;;;5064247;28;8883;-72
2022/07/19 07:31:34;;;;;;;;;2.00;2.00;27.90;99.90;;;;;;5043858;28;8844;-71
2022/07/19 07:34:04;;;;;;;;;2.60;2.40;27.90;99.90;;;;;;5056789;28;8860;-71
2022/07/19 07:36:35;;;;;;;;;1.00;1.00;27.90;99.90;;;;;;5064721;28;8866;-71
2022/07/19 07:39:05;;;;;;;;;2.00;2.00;27.80;99.90;;;;;;5063101;28;8874;-71
2022/07/19 07:41:38;;;;;;;;;2.00;2.00;27.80;99.90;;;;;;5062443;28;8797;-71
2022/07/19 07:44:21;;;;;;;;;2.20;2.00;27.80;99.90;;;;;;5055900;28;8836;-71
2022/07/19 07:46:52;;;;;;;;;1.60;1.60;27.80;99.90;;;;;;5073281;28;8836;-71
2022/07/19 07:49:26;;;;;;;;;2.00;2.00;27.80;99.90;;;;;;5087955;28;8843;-71
2022/07/19 07:51:56;;;;;;;;;1.80;1.80;27.70;99.90;;;;;;5067725;28;8812;-71
2022/07/19 07:54:26;;;;;;;;;1.40;1.40;27.70;99.90;;;;;;5062193;28;8835;-71
2022/07/19 07:56:57;;;;;;;;;1.00;1.00;27.70;99.90;;;;;;5059391;28;8828;-71
2022/07/19 07:59:27;;;;;;;;;1.20;1.20;27.70;99.90;;;;;;5060264;28;8858;-71
2022/07/19 08:02:00;;;;;;;;;1.80;1.80;27.60;99.90;;;;;;5060704;28;8820;-71
2022/07/19 08:04:30;;;;;;;;;2.20;2.20;27.60;99.90;;;;;;5056975;28;8832;-71
2022/07/19 08:07:02;;;;;;;;;0.40;0.40;27.50;99.90;;;;;;5059253;28;8820;-71
2022/07/19 08:09:34;;;;;;;;;1.00;1.00;27.50;99.90;;;;;;5076966;28;8848;-71
2022/07/19 08:12:06;;;;;;;;;1.00;1.00;27.60;99.90;;;;;;5070548;28;8905;-71
2022/07/19 08:14:39;;;;;;;;;1.80;1.80;27.50;99.90;;;;;;5056092;28;8828;-71
2022/07/19 08:17:12;;;;;;;;;1.40;1.20;27.40;99.90;;;;;;5062354;28;8879;-71
2022/07/19 08:19:45;;;;;;;;;2.00;2.00;27.40;99.90;;;;;;5059897;28;8828;-71
2022/07/19 08:22:19;;;;;;;;;3.20;2.00;27.40;99.90;;;;;;5056261;28;8828;-71
2022/07/19 08:24:52;;;;;;;;;1.80;1.80;27.40;99.90;;;;;;5061893;28;8808;-71
2022/07/19 08:27:22;;;;;;;;;0.00;0.00;27.30;99.90;;;;;;5056786;28;8863;-71
2022/07/19 08:29:51;;;;;;;;;0.00;0.00;27.20;99.90;;;;;;5073584;28;8852;-71
2022/07/19 08:32:27;;;;;;;;;1.80;1.20;27.50;99.90;;;;;;5060270;28;8856;-71
2022/07/19 08:34:57;;;;;;;;;1.60;1.60;27.40;99.90;;;;;;5057462;28;8827;-71
2022/07/19 08:37:27;;;;;;;;;1.00;1.00;27.30;99.90;;;;;;5054145;28;8865;-71
2022/07/19 08:39:57;;;;;;;;;1.60;1.60;27.20;99.90;;;;;;5075067;28;8977;-71
2022/07/19 08:42:28;;;;;;;;;1.00;1.00;27.20;99.90;;;;;;5069968;28;8856;-71
2022/07/19 08:45:10;;;;;;;;;2.00;2.00;27.20;99.90;;;;;;5058301;28;8847;-71
2022/07/19 08:47:40;;;;;;;;;1.00;1.00;27.20;99.90;;;;;;5060200;28;8832;-71
2022/07/19 08:50:11;;;;;;;;;3.20;2.00;27.20;99.90;;;;;;5039595;28;8851;-71
2022/07/19 08:52:41;;;;;;;;;1.00;1.00;27.10;99.90;;;;;;5057326;28;8826;-71
2022/07/19 08:55:11;;;;;;;;;2.00;2.00;27.00;99.90;;;;;;5057813;28;8866;-71
2022/07/19 08:58:00;;;;;;;;;1.00;1.00;27.10;99.90;;;;;;5057011;28;8852;-71
2022/07/19 09:00:34;;;;;;;;;1.00;1.00;27.10;99.90;;;;;;5057506;28;8812;-71
2022/07/19 09:03:07;;;;;;;;;2.00;2.00;27.00;99.90;;;;;;5055363;28;8843;-71
2022/07/19 09:05:38;;;;;;;;;0.00;0.00;27.00;99.90;;;;;;5053628;28;8818;-71
2022/07/19 09:08:10;;;;;;;;;1.60;1.60;27.00;99.90;;;;;;5056391;28;8848;-70
2022/07/19 09:13:37;;;;;;;;;2.20;2.20;26.90;99.90;;;;;;5055688;28;8858;-70
2022/07/19 09:16:08;;;;;;;;;1.00;1.00;26.90;99.90;;;;;;5060823;28;8866;-70
2022/07/19 09:18:38;;;;;;;;;1.00;1.00;26.90;99.90;;;;;;5060379;28;8816;-70
2022/07/19 09:21:08;;;;;;;;;2.00;2.00;26.90;99.90;;;;;;5063684;28;8848;-70
2022/07/19 09:23:42;;;;;;;;;1.80;1.80;26.80;99.90;;;;;;5089580;27;8839;-70
2022/07/19 09:26:14;;;;;;;;;1.00;1.00;26.80;99.90;;;;;;5062418;28;8815;-70
2022/07/19 09:28:43;;;;;;;;;2.00;2.00;26.80;99.90;;;;;;5061471;28;8832;-71
2022/07/19 09:31:15;;;;;;;;;2.00;2.00;26.70;99.90;;;;;;5091060;27;8906;-71
2022/07/19 09:33:53;;;;;;;;;1.40;1.40;26.80;99.90;;;;;;5070572;28;8809;-71
2022/07/19 09:36:22;;;;;;;;;5.20;2.00;26.70;99.90;;;;;;5095465;27;8865;-70
2022/07/19 09:38:53;;;;;;;;;2.00;2.00;26.60;99.90;;;;;;5064660;28;9522;-70
2022/07/19 09:41:28;;;;;;;;;3.40;3.00;26.60;99.90;;;;;;5061707;28;8855;-71
2022/07/19 09:44:00;;;;;;;;;1.60;1.60;26.60;99.90;;;;;;5063829;28;8871;-71
2022/07/19 09:46:39;;;;;;;;;2.00;2.00;26.60;99.90;;;;;;5062531;28;8831;-71
2022/07/19 09:49:17;;;;;;;;;2.00;2.00;26.50;99.90;;;;;;5058370;28;8846;-71
2022/07/19 09:51:53;;;;;;;;;0.00;0.00;26.60;99.90;;;;;;5085261;28;8822;-71
2022/07/19 09:54:27;;;;;;;;;2.00;2.00;26.50;99.90;;;;;;5068192;28;8824;-71
2022/07/19 09:56:59;;;;;;;;;2.00;2.00;26.50;99.90;;;;;;5062425;28;8844;-70
2022/07/19 09:59:32;;;;;;;;;0.60;0.60;26.50;99.90;;;;;;5093652;27;8785;-71
2022/07/19 10:02:03;;;;;;;;;1.00;1.00;26.50;99.90;;;;;;5070683;28;8872;-71
2022/07/19 10:04:35;;;;;;;;;2.00;2.00;26.50;99.90;;;;;;5058836;28;8824;-72
2022/07/19 10:07:05;;;;;;;;;1.20;1.20;26.40;99.90;;;;;;5081341;28;8848;-70
2022/07/19 10:09:37;;;;;;;;;2.00;2.00;26.40;99.90;;;;;;5061880;28;8828;-71
2022/07/19 10:12:07;;;;;;;;;4.60;3.00;26.30;99.90;;;;;;5065098;28;8961;-70
2022/07/19 10:14:40;;;;;;;;;2.60;2.00;26.30;99.90;;;;;;5080200;28;8824;-71
2022/07/19 10:17:27;;;;;;;;;0.40;0.00;26.30;99.90;;;;;;5059632;28;8852;-70
2022/07/19 10:19:58;;;;;;;;;2.40;2.40;26.30;99.90;;;;;;5058391;28;9282;-70
2022/07/19 10:22:28;;;;;;;;;2.40;2.40;26.30;99.90;;;;;;5057037;28;8878;-71
2022/07/19 10:25:15;;;;;;;;;2.00;2.00;26.20;99.90;;;;;;5060704;28;8872;-70
2022/07/19 10:27:48;;;;;;;;;3.80;2.00;26.20;99.90;;;;;;5076511;28;8811;-70
2022/07/19 10:30:23;;;;;;;;;2.20;2.20;26.30;99.90;;;;;;5064199;28;8851;-70
2022/07/19 10:32:56;;;;;;;;;1.40;1.40;26.30;99.90;;;;;;5079999;28;8845;-70
2022/07/19 10:35:28;;;;;;;;;1.80;1.80;26.30;99.90;;;;;;5078972;28;8875;-70
2022/07/19 10:38:02;;;;;;;;;2.00;2.00;26.30;99.90;;;;;;5052962;28;9530;-71
2022/07/19 10:40:56;;;;;;;;;2.40;2.40;26.20;99.90;;;;;;5068575;28;8880;-71
2022/07/19 10:43:27;;;;;;;;;2.00;2.00;26.20;99.90;;;;;;5057250;28;8804;-71
2022/07/19 10:45:58;;;;;;;;;2.60;2.00;26.20;99.90;;;;;;5060445;28;8868;-71
2022/07/19 10:48:46;;;;;;;;;2.40;2.40;26.20;99.90;;;;;;5059114;28;8808;-70
2022/07/19 10:51:33;;;;;;;;;2.00;2.00;26.10;99.90;;;;;;5065191;28;8867;-70
2022/07/19 10:54:08;;;;;;;;;2.00;2.00;26.10;99.90;;;;;;5075748;28;8855;-70
2022/07/19 10:56:43;;;;;;;;;3.00;3.00;26.00;99.90;;;;;;5064318;28;8886;-71
2022/07/19 10:59:46;;;;;;;;;2.00;2.00;26.10;99.90;;;;;;5060473;28;8890;-71
2022/07/19 11:02:24;;;;;;;;;2.00;2.00;26.10;99.90;;;;;;5061198;28;8851;-71
2022/07/19 11:05:22;;;;;;;;;2.60;2.60;26.00;99.90;;;;;;5088064;28;8862;-70
2022/07/19 11:07:55;;;;;;;;;2.00;2.00;26.00;99.90;;;;;;5091699;27;8857;-70
2022/07/19 11:10:31;;;;;;;;;3.80;2.00;26.00;99.90;;;;;;5057970;28;8848;-71
2022/07/19 11:13:02;;;;;;;;;2.00;2.00;26.00;99.90;;;;;;5060356;28;8855;-70
2022/07/19 11:15:34;;;;;;;;;2.00;2.00;25.90;99.90;;;;;;5061836;28;8894;-70
2022/07/19 11:18:09;;;;;;;;;1.20;1.20;26.00;99.90;;;;;;5059054;28;8836;-70
2022/07/19 11:20:42;;;;;;;;;4.60;1.80;26.00;99.90;;;;;;5057701;28;8829;-70
2022/07/19 11:23:20;;;;;;;;;2.80;2.80;25.90;99.90;;;;;;5060658;28;8966;-71
2022/07/19 11:25:51;;;;;;;;;2.00;2.00;26.00;99.90;;;;;;5056212;28;8816;-70
2022/07/19 11:28:25;;;;;;;;;2.40;2.40;25.90;99.90;;;;;;5061199;28;8836;-71
2022/07/19 11:30:55;;;;;;;;;2.20;2.20;25.80;99.90;;;;;;5057432;28;8840;-71
2022/07/19 11:33:25;;;;;;;;;2.40;2.40;25.80;99.90;;;;;;5059111;28;8840;-71
2022/07/19 11:35:59;;;;;;;;;2.25;2.25;25.80;99.90;;;;;;5060667;28;8843;-70
2022/07/19 11:38:36;;;;;;;;;1.25;1.25;25.80;99.90;;;;;;5058413;28;8862;-71
2022/07/19 11:41:18;;;;;;;;;1.50;1.50;25.80;99.90;;;;;;5072056;28;8882;-71
2022/07/19 11:43:59;;;;;;;;;1.40;1.40;25.80;99.90;;;;;;5072308;28;8824;-70
2022/07/19 11:46:43;;;;;;;;;2.20;2.20;25.80;99.90;;;;;;5054107;28;8796;-71
2022/07/19 11:49:14;;;;;;;;;1.20;1.20;25.80;99.90;;;;;;5085544;28;8851;-70
2022/07/19 11:51:59;;;;;;;;;2.00;2.00;25.80;99.90;;;;;;5043939;28;8896;-71
2022/07/19 11:54:32;;;;;;;;;2.20;2.20;25.70;99.90;;;;;;5089578;27;8796;-70
2022/07/19 11:57:03;;;;;;;;;1.40;1.40;25.80;99.90;;;;;;5059583;28;8884;-70
2022/07/19 11:59:39;;;;;;;;;2.40;2.40;25.80;99.90;;;;;;5081088;28;9507;-71
2022/07/19 12:02:10;;;;;;;;;1.20;1.20;25.70;99.90;;;;;;5059741;28;8824;-71
2022/07/19 12:04:43;;;;;;;;;2.20;2.00;26.00;99.90;;;;;;5055715;28;8840;-70
2022/07/19 12:07:18;;;;;;;;;2.00;2.00;25.90;99.90;;;;;;5070264;28;8842;-70
2022/07/19 12:09:50;;;;;;;;;2.40;2.40;25.80;99.90;;;;;;5059785;28;9440;-71
2022/07/19 12:12:21;;;;;;;;;2.00;2.00;25.80;99.90;;;;;;5089654;28;8878;-71
2022/07/19 12:15:13;;;;;;;;;0.00;0.00;25.90;99.90;;;;;;5055496;28;8878;-71
2022/07/19 12:17:58;;;;;;;;;2.40;2.40;25.90;99.90;;;;;;5053149;28;8847;-70
2022/07/19 12:20:29;;;;;;;;;4.00;2.40;25.80;99.90;;;;;;5056669;28;8827;-71
2022/07/19 12:23:23;;;;;;;;;1.00;1.00;25.90;99.90;;;;;;5089119;28;9375;-70
2022/07/19 12:25:52;;;;;;;;;1.75;1.75;25.80;99.90;;;;;;5056136;28;8871;-70
2022/07/19 12:28:27;;;;;;;;;2.50;2.50;25.90;99.90;;;;;;5055360;28;8850;-70
2022/07/19 12:31:06;;;;;;;;;1.60;1.60;25.90;99.90;;;;;;5060459;28;9692;-70
2022/07/19 12:33:46;;;;;;;;;2.60;2.60;25.90;99.90;;;;;;5062964;28;8820;-71
2022/07/19 12:36:36;;;;;;;;;1.60;1.60;26.00;99.90;;;;;;5065849;28;8978;-71
2022/07/19 12:39:16;;;;;;;;;2.00;2.00;26.10;99.90;;;;;;5085313;28;8882;-70
2022/07/19 12:42:01;;;;;;;;;2.00;2.00;26.10;99.90;;;;;;5069885;28;8836;-70
2022/07/19 12:44:35;;;;;;;;;3.00;2.50;26.00;99.90;;;;;;5091683;28;8823;-71
2022/07/19 12:47:04;;;;;;;;;1.00;1.00;26.00;99.90;;;;;;5057826;28;8816;-71
2022/07/19 12:49:54;;;;;;;;;3.00;3.00;26.20;99.90;;;;;;5061547;28;8828;-70
2022/07/19 12:52:41;;;;;;;;;2.20;2.20;26.20;99.90;;;;;;5084805;28;8864;-70
2022/07/19 12:55:12;;;;;;;;;3.60;3.60;26.20;99.90;;;;;;5062531;28;9582;-71
2022/07/19 12:57:49;;;;;;;;;2.00;2.00;26.30;99.90;;;;;;5063368;28;8840;-71
2022/07/19 13:00:23;;;;;;;;;2.00;2.00;26.30;99.90;;;;;;5062828;28;8878;-70
2022/07/19 13:02:53;;;;;;;;;1.40;1.40;26.40;99.90;;;;;;5060345;28;8844;-70
2022/07/19 13:05:29;;;;;;;;;2.60;2.60;26.40;99.90;;;;;;5059103;28;8851;-71
2022/07/19 13:07:59;;;;;;;;;3.20;2.00;26.30;99.90;;;;;;5088861;27;8835;-70
2022/07/19 13:10:35;;;;;;;;;2.40;2.40;26.30;99.90;;;;;;5064014;28;8834;-70
2022/07/19 13:13:05;;;;;;;;;2.00;2.00;26.40;99.90;;;;;;5059322;28;8824;-70
2022/07/19 13:15:37;;;;;;;;;2.20;2.20;26.60;99.90;;;;;;5045930;28;8851;-70
2022/07/19 13:18:06;;;;;;;;;2.80;2.60;26.60;99.90;;;;;;5057226;28;8828;-71
2022/07/19 13:20:40;;;;;;;;;2.60;2.60;26.70;99.90;;;;;;5095096;27;8846;-71
2022/07/19 13:23:13;;;;;;;;;2.00;2.00;26.80;99.90;;;;;;5061841;28;9426;-71
2022/07/19 13:25:45;;;;;;;;;2.20;2.20;26.70;99.90;;;;;;5062879;28;8832;-70
2022/07/19 13:28:16;;;;;;;;;3.80;1.00;26.70;99.90;;;;;;5056654;28;8856;-70
2022/07/19 13:30:46;;;;;;;;;2.60;2.60;26.80;99.90;;;;;;5074621;28;8870;-70
2022/07/19 13:33:19;;;;;;;;;3.40;3.00;26.90;99.90;;;;;;5073480;28;8833;-71
2022/07/19 13:35:50;;;;;;;;;3.80;3.00;26.90;99.90;;;;;;5060243;28;9511;-71
2022/07/19 13:38:27;;;;;;;;;2.00;2.00;27.00;99.90;;;;;;5058739;28;8846;-72
2022/07/19 13:41:00;;;;;;;;;2.00;2.00;27.10;99.90;;;;;;5060872;28;8831;-71
2022/07/19 13:43:30;;;;;;;;;2.80;2.80;27.20;99.90;;;;;;5059080;28;8910;-71
2022/07/19 13:46:00;;;;;;;;;2.80;2.80;27.20;99.90;;;;;;5044073;28;8868;-71
2022/07/19 13:48:34;;;;;;;;;5.80;2.20;27.30;99.90;;;;;;5087830;27;8845;-70
2022/07/19 13:51:05;;;;;;;;;2.00;2.00;27.30;99.90;;;;;;5067893;28;8848;-71
2022/07/19 13:53:38;;;;;;;;;3.20;3.20;27.50;99.90;;;;;;5080921;28;8862;-71
2022/07/19 13:56:08;;;;;;;;;3.20;3.20;27.50;99.90;;;;;;5048006;28;9190;-71
2022/07/19 13:58:40;;;;;;;;;2.00;2.00;27.50;99.90;;;;;;5063640;28;8858;-71
2022/07/19 14:01:14;;;;;;;;;3.00;3.00;27.60;99.90;;;;;;5058671;28;8832;-71
2022/07/19 14:04:05;;;;;;;;;3.00;3.00;27.60;99.90;;;;;;5074246;28;8838;-71
2022/07/19 14:06:38;;;;;;;;;4.00;3.00;27.80;99.90;;;;;;5091810;27;8816;-71
2022/07/19 14:09:10;;;;;;;;;3.00;3.00;27.80;99.90;;;;;;5060630;28;8804;-71
2022/07/19 14:11:41;;;;;;;;;4.00;3.00;27.90;99.90;;;;;;5056753;28;9405;-71
2022/07/19 14:14:12;;;;;;;;;3.40;3.40;27.90;99.90;;;;;;5058970;28;8836;-71
2022/07/19 14:16:42;;;;;;;;;3.80;3.80;28.00;99.90;;;;;;5058639;28;8837;-71
2022/07/19 14:19:15;;;;;;;;;2.20;2.20;28.00;99.90;;;;;;5062729;28;8824;-71
2022/07/19 14:21:46;;;;;;;;;2.20;2.20;28.00;99.90;;;;;;5066508;28;8866;-71
2022/07/19 14:24:22;;;;;;;;;5.00;3.00;28.10;99.90;;;;;;5064557;28;8836;-71
2022/07/19 14:26:52;;;;;;;;;4.80;3.00;28.20;99.90;;;;;;5048635;28;8850;-71
2022/07/19 14:29:23;;;;;;;;;2.40;2.40;28.30;99.90;;;;;;5055263;28;8836;-71
2022/07/19 14:31:54;;;;;;;;;1.00;1.00;28.40;99.90;;;;;;5073858;28;8836;-71
2022/07/19 14:34:24;;;;;;;;;3.20;3.20;28.50;99.90;;;;;;5074749;28;9126;-71
2022/07/19 14:37:06;;;;;;;;;3.00;2.40;28.60;99.90;;;;;;5066245;28;8831;-71
2022/07/19 14:39:37;;;;;;;;;3.60;3.60;28.60;99.90;;;;;;5066070;28;9590;-71
2022/07/19 14:42:08;;;;;;;;;2.20;2.20;28.60;99.90;;;;;;5062515;28;8863;-71
2022/07/19 14:44:41;;;;;;;;;2.80;2.80;28.80;99.90;;;;;;5061345;28;8877;-71
2022/07/19 14:47:10;;;;;;;;;4.00;2.40;28.90;99.90;;;;;;5075227;28;8866;-71
2022/07/19 14:49:43;;;;;;;;;3.00;3.00;29.00;99.90;;;;;;5061448;28;8828;-70
2022/07/19 14:52:15;;;;;;;;;5.00;5.00;29.00;99.90;;;;;;5078171;28;8836;-70
2022/07/19 14:54:45;;;;;;;;;0.60;0.60;29.10;99.90;;;;;;5061215;28;8882;-70
2022/07/19 14:57:18;;;;;;;;;3.60;3.60;29.20;99.90;;;;;;5057920;28;8836;-70
2022/07/19 14:59:50;;;;;;;;;3.40;3.40;29.30;99.90;;;;;;5061735;28;8864;-70
2022/07/19 15:02:20;;;;;;;;;2.80;2.80;29.30;99.90;;;;;;5058263;28;8832;-70
2022/07/19 15:04:51;;;;;;;;;4.00;4.00;29.40;99.90;;;;;;5063504;28;8836;-70
2022/07/19 15:07:22;;;;;;;;;3.20;3.20;29.60;99.90;;;;;;5060350;28;8828;-70
2022/07/19 15:09:53;;;;;;;;;3.40;3.00;29.70;99.90;;;;;;5074219;28;8831;-71
2022/07/19 15:12:24;;;;;;;;;3.60;3.60;29.70;99.90;;;;;;5064318;28;8839;-71
2022/07/19 15:14:55;;;;;;;;;3.20;2.00;29.80;99.90;;;;;;5074967;28;8994;-70
2022/07/19 15:17:26;;;;;;;;;4.80;3.20;29.80;99.90;;;;;;5062673;28;8832;-70
2022/07/19 15:19:58;;;;;;;;;6.00;3.00;29.80;99.90;;;;;;5060817;28;8847;-71
2022/07/19 15:22:29;;;;;;;;;3.00;3.00;29.80;99.90;;;;;;5093990;27;8849;-71
2022/07/19 15:25:03;;;;;;;;;3.20;3.00;30.10;99.90;;;;;;5063431;28;8840;-71
2022/07/19 15:27:34;;;;;;;;;3.40;3.40;30.10;99.90;;;;;;5058727;28;8836;-71
2022/07/19 15:30:10;;;;;;;;;3.00;3.00;30.20;99.90;;;;;;5062680;28;8854;-71
2022/07/19 15:32:41;;;;;;;;;1.60;0.00;30.20;99.90;;;;;;5076829;28;8874;-71
2022/07/19 15:35:17;;;;;;;;;5.00;3.60;30.30;99.90;;;;;;5061549;28;8854;-70
2022/07/19 15:37:47;;;;;;;;;4.60;3.80;30.30;99.90;;;;;;5058335;28;8809;-69
2022/07/19 15:40:18;;;;;;;;;2.80;2.60;30.40;99.90;;;;;;5062079;28;8891;-69
2022/07/19 15:42:51;;;;;;;;;3.40;3.40;30.50;99.90;;;;;;5070506;28;8867;-70
2022/07/19 15:45:24;;;;;;;;;5.40;3.60;30.60;99.90;;;;;;5059675;28;8831;-70
2022/07/19 15:47:55;;;;;;;;;1.60;1.60;30.60;99.90;;;;;;5093716;27;8832;-70
2022/07/19 15:50:26;;;;;;;;;2.60;2.20;30.70;99.90;;;;;;5060208;28;8820;-71
2022/07/19 15:52:57;;;;;;;;;2.40;2.00;30.80;99.90;;;;;;5060481;28;8844;-71
2022/07/19 15:55:41;;;;;;;;;3.40;3.40;30.90;99.90;;;;;;5056189;28;8931;-71
2022/07/19 15:58:16;;;;;;;;;2.40;2.00;31.00;99.90;;;;;;5060839;28;9570;-70
2022/07/19 16:00:52;;;;;;;;;2.20;2.20;31.10;99.90;;;;;;5063972;28;8838;-69
2022/07/19 16:03:22;;;;;;;;;3.00;3.00;31.20;99.90;;;;;;5065884;28;8812;-70
2022/07/19 16:05:54;;;;;;;;;3.00;2.20;31.30;99.90;;;;;;5068673;28;8846;-70
2022/07/19 16:08:25;;;;;;;;;4.00;2.60;31.30;99.90;;;;;;5077216;28;8830;-69
2022/07/19 16:10:55;;;;;;;;;2.60;2.60;31.40;99.90;;;;;;5063006;28;8814;-70
2022/07/19 16:13:28;;;;;;;;;3.00;3.00;31.50;99.90;;;;;;5061830;28;8881;-70
2022/07/19 16:16:01;;;;;;;;;6.00;2.80;31.40;99.90;;;;;;5066927;28;8875;-71
2022/07/19 16:18:31;;;;;;;;;2.00;1.40;31.50;99.90;;;;;;5060742;28;8835;-71
2022/07/19 16:21:02;;;;;;;;;3.80;3.80;31.60;99.90;;;;;;5073065;28;8843;-71
2022/07/19 16:23:36;;;;;;;;;4.20;3.00;31.70;99.90;;;;;;5075652;28;8829;-71
2022/07/19 16:26:08;;;;;;;;;4.20;3.00;31.70;99.90;;;;;;5072384;28;8822;-71
2022/07/19 16:28:39;;;;;;;;;2.40;2.40;31.80;99.90;;;;;;5048383;28;8840;-71
2022/07/19 16:31:08;;;;;;;;;2.40;2.40;31.90;99.90;;;;;;5066186;28;8843;-72
2022/07/19 16:33:38;;;;;;;;;1.40;1.40;32.10;99.90;;;;;;5066457;28;8845;-72
2022/07/19 16:36:11;;;;;;;;;2.80;2.80;32.10;99.90;;;;;;5079140;28;8856;-72
2022/07/19 16:38:40;;;;;;;;;3.00;3.00;32.00;99.90;;;;;;5062507;28;8828;-72
2022/07/19 16:41:12;;;;;;;;;3.80;3.00;32.20;99.90;;;;;;5064400;28;8838;-72
2022/07/19 16:43:44;;;;;;;;;1.00;1.00;32.30;99.90;;;;;;5066461;28;8862;-72
2022/07/19 16:46:16;;;;;;;;;2.00;2.00;32.30;99.90;;;;;;5067146;28;8837;-72
2022/07/19 16:48:49;;;;;;;;;3.80;3.00;32.40;99.90;;;;;;5101604;28;8878;-72
2022/07/19 16:51:20;;;;;;;;;2.00;2.00;32.30;99.90;;;;;;5073883;28;8841;-72
2022/07/19 16:53:50;;;;;;;;;2.00;2.00;32.40;99.90;;;;;;5063523;28;8866;-72
2022/07/19 16:56:23;;;;;;;;;3.20;3.20;32.50;99.90;;;;;;5060585;28;9543;-72
2022/07/19 16:58:53;;;;;;;;;3.80;2.80;32.50;99.90;;;;;;5068230;28;8853;-72
2022/07/19 17:01:26;;;;;;;;;5.20;4.40;32.70;99.90;;;;;;5100497;28;8829;-72
2022/07/19 17:03:57;;;;;;;;;3.20;3.00;32.80;99.90;;;;;;5076015;28;8841;-72
2022/07/19 17:06:30;;;;;;;;;3.80;3.00;32.60;99.90;;;;;;5074707;28;9587;-69
2022/07/19 17:09:05;;;;;;;;;4.80;3.20;32.90;99.90;;;;;;5070231;28;8832;-69
2022/07/19 17:11:39;;;;;;;;;6.40;3.20;32.80;99.90;;;;;;5067318;28;8945;-69
2022/07/19 17:14:09;;;;;;;;;4.00;4.00;32.80;99.90;;;;;;5099874;28;8843;-71
2022/07/19 17:16:41;;;;;;;;;2.60;2.60;33.20;99.90;;;;;;5054692;28;8813;-70
2022/07/19 17:19:13;;;;;;;;;6.20;3.40;33.20;99.90;;;;;;5064110;28;8853;-70
2022/07/19 17:21:42;;;;;;;;;3.00;3.00;33.40;99.90;;;;;;5059591;28;8875;-71
2022/07/19 17:24:13;;;;;;;;;4.00;3.00;33.30;99.90;;;;;;5078658;28;8869;-71
2022/07/19 17:26:49;;;;;;;;;4.20;3.60;33.20;99.90;;;;;;5050019;28;8852;-71
2022/07/19 17:29:22;;;;;;;;;2.80;2.80;33.30;99.90;;;;;;5068000;28;8831;-71
2022/07/19 17:31:52;;;;;;;;;4.00;2.40;33.50;99.90;;;;;;5066929;28;8846;-71
2022/07/19 17:34:24;;;;;;;;;4.00;4.00;33.60;99.90;;;;;;5068493;28;8921;-71
2022/07/19 17:36:58;;;;;;;;;4.60;2.40;33.70;99.90;;;;;;5078467;28;8830;-72
2022/07/19 17:39:29;;;;;;;;;4.00;4.00;33.80;99.90;;;;;;5069282;28;9590;-71
2022/07/19 17:42:05;;;;;;;;;3.00;3.00;33.70;99.90;;;;;;5109493;27;8835;-71
2022/07/19 17:44:34;;;;;;;;;3.80;3.00;33.70;99.90;;;;;;5066590;28;9198;-71
2022/07/19 17:47:05;;;;;;;;;2.80;2.80;33.80;99.90;;;;;;5071855;28;8976;-70
2022/07/19 17:49:38;;;;;;;;;4.20;3.80;33.60;99.90;;;;;;5087152;28;8825;-70
2022/07/19 17:52:09;;;;;;;;;2.00;2.00;33.70;99.90;;;;;;5066824;28;9067;-71
2022/07/19 17:54:39;;;;;;;;;3.20;3.20;33.80;99.90;;;;;;5069856;28;8836;-71
2022/07/19 17:57:20;;;;;;;;;5.20;4.40;33.90;99.90;;;;;;5068925;28;8837;-71
2022/07/19 17:59:50;;;;;;;;;4.20;3.20;34.20;99.90;;;;;;5097026;27;8815;-71